Anajas, Brazil
Current Conditions -  °F | °C
As of 1:00 AM on Wednesday 26 Nov 2014 (Local Time) from SBMQ Reporting Station
Clear Clear  
Wind Chill: 81°   Ceiling: Unl
Heat Index: 85°   Visibility: 6mi
Dew Point: 73°   Wind: 8mph
Humidity: 79%   Direction: 50°NE
Pressure: 29.8"   Gusts: NA
Location:  0.98°S, 49.95°W
Report Text: SBMQ 260400Z 05007KT CAVOK 27/23 Q1009
Loading
Personal Weather Stations






























Interactive Weather Map New forecast layout! Learn more

10-Day Weather Forecast

Advertisements
Track Severe Weather on mobile